Lobo

Go HERE for most recent data if this page is not up to date.

Jump to table bottom
Date/Time Temp deg F RH % 24 Hr Snow (in) Snow Depth (in) H2O (in)
02/25 09:00 11.3 21 2.0 60.4 0.00
02/25 08:00 7.2 28 2.2 60.7 0.00
02/25 07:00 4.9 26 2.1 60.6 0.00
02/25 06:00 3.7 32 2.0 60.6 0.00
02/25 05:00 2.2 44 2.0 60.6 0.00
02/25 04:00 1.7 52 2.0 60.6 0.00
02/25 03:00 1.5 53 2.0 60.6 0.00
02/25 02:00 2.3 62 1.9 60.5 0.01
02/25 01:00 3.1 63 1.9 60.7 0.00
02/25 00:00 4.7 64 1.8 60.7 0.00
02/24 23:00 4.4 56 2.0 60.9 0.00
02/24 22:00 5.0 70 2.1 61.0 0.00
02/24 21:00 5.5 62 1.9 61.0 0.00
02/24 20:00 5.7 51 1.9 61.0 0.00
02/24 19:00 5.7 62 1.9 61.1 0.00
02/24 18:00 6.5 58 1.9 60.9 0.00
02/24 17:00 7.5 59 1.8 60.8 0.00
02/24 16:00 8.6 57 1.7 60.9 0.00
02/24 15:00 8.9 72 1.7 60.3 0.03
02/24 14:00 11.3 79 1.3 60.2 0.00
02/24 13:00 8.8 67 1.6 60.9 0.01
02/24 12:00 10.2 80 1.2 60.2 0.00
02/24 11:00 9.3 65 0.9 60.1 0.00
02/24 10:00 8.3 70 0.9 60.3 0.00
02/24 09:00 6.9 66 1.0 60.6 0.00
02/24 08:00 6.0 71 1.0 60.6 0.01
02/24 07:00 6.0 72 1.0 60.7 0.03
02/24 06:00 5.6 80 1.0 60.9 0.00
02/24 05:00 6.4 79 1.0 60.7 0.00
02/24 04:00 6.3 83 0.8 60.8 0.00
02/24 03:00 6.4 80 0.6 60.7 0.00
02/24 02:00 6.3 78 0.4 60.5 0.00
02/24 01:00 6.0 73 0.4 60.5 0.00
02/24 00:00 6.2 72 0.3 60.5 0.01
.